Time;durP1;ratioP1;P1;durP2;ratioP2;P2;SDS_P1;SDS_P2;PMS_P1;PMS_P2;Temp;Humidity;BMP_temperature;BMP_pressure;BME280_temperature;BME280_humidity;BME280_pressure;Samples;Min_cycle;Max_cycle;Signal;HPM_P1;HPM_P2
2022/02/25 00:00:18;;;;;;;;;;;;;;;21.97;23.22;98116.41;5082220;28;1476;-78
2022/02/25 00:02:43;;;;;;;;;;;;;;;22.19;23.14;98120.28;5047047;28;1114;-79
2022/02/25 00:05:09;;;;;;;;;;;;;;;22.39;22.75;98108.00;5101579;28;1887;-78
2022/02/25 00:07:34;;;;;;;;;;;;;;;22.40;22.51;98109.59;5063524;28;986;-77
2022/02/25 00:10:00;;;;;;;;;;;;;;;22.10;22.93;98108.75;5101375;28;905;-77
2022/02/25 00:12:25;;;;;;;;;;;;;;;21.94;23.44;98105.94;5099763;28;920;-78
2022/02/25 00:14:52;;;;;;;;;;;;;;;22.15;22.90;98111.06;5100459;28;949;-77
2022/02/25 00:17:17;;;;;;;;;;;;;;;22.49;22.37;98109.75;5099975;28;911;-79
2022/02/25 00:19:43;;;;;;;;;;;;;;;22.44;22.48;98104.63;5099833;28;1192;-78
2022/02/25 00:22:11;;;;;;;;;;;;;;;22.27;22.86;98104.66;5099423;28;984;-78
2022/02/25 00:24:36;;;;;;;;;;;;;;;22.15;23.08;98099.75;5082040;28;1734;-78
2022/02/25 00:27:01;;;;;;;;;;;;;;;22.16;22.92;98101.31;5100595;28;1973;-78
2022/02/25 00:29:27;;;;;;;;;;;;;;;22.14;23.13;98092.47;5081637;28;1118;-77
2022/02/25 00:31:52;;;;;;;;;;;;;;;22.07;22.92;98086.97;5081953;28;918;-77
2022/02/25 00:34:18;;;;;;;;;;;;;;;21.96;22.97;98080.78;5092073;28;1668;-78
2022/02/25 00:36:43;;;;;;;;;;;;;;;21.83;23.46;98083.56;5093523;28;1014;-77
2022/02/25 00:39:09;;;;;;;;;;;;;;;21.92;23.31;98080.91;5099032;28;921;-78
2022/02/25 00:41:34;;;;;;;;;;;;;;;21.77;23.49;98083.31;5064243;28;994;-77
2022/02/25 00:44:00;;;;;;;;;;;;;;;21.88;23.21;98079.41;5099474;28;917;-78
2022/02/25 00:46:25;;;;;;;;;;;;;;;21.71;23.67;98076.59;5100125;28;1983;-77
2022/02/25 00:48:51;;;;;;;;;;;;;;;22.11;23.24;98087.69;5098001;28;975;-78
2022/02/25 00:51:16;;;;;;;;;;;;;;;22.59;22.39;98083.91;5081905;28;1157;-78
2022/02/25 00:53:41;;;;;;;;;;;;;;;22.50;22.62;98086.59;5099201;28;881;-78
2022/02/25 00:56:07;;;;;;;;;;;;;;;22.10;23.22;98074.75;5100523;28;1152;-78
2022/02/25 00:58:32;;;;;;;;;;;;;;;21.90;23.14;98076.91;5099085;28;909;-77
2022/02/25 01:00:58;;;;;;;;;;;;;;;21.99;23.07;98071.41;5098528;28;1318;-78
2022/02/25 01:03:23;;;;;;;;;;;;;;;22.34;22.52;98069.66;5098891;28;1154;-77
2022/02/25 01:05:49;;;;;;;;;;;;;;;22.51;22.47;98073.22;5099994;28;1975;-78
2022/02/25 01:08:14;;;;;;;;;;;;;;;22.12;22.81;98072.28;5045594;28;973;-77
2022/02/25 01:10:40;;;;;;;;;;;;;;;22.01;22.91;98066.09;5063785;28;1052;-78
2022/02/25 01:13:05;;;;;;;;;;;;;;;21.78;23.23;98070.75;5097855;28;931;-78
2022/02/25 01:15:31;;;;;;;;;;;;;;;22.23;22.69;98066.34;5092357;28;1511;-78
2022/02/25 01:17:56;;;;;;;;;;;;;;;22.60;22.30;98070.53;5087730;28;1787;-78
2022/02/25 01:20:21;;;;;;;;;;;;;;;22.51;22.39;98071.19;5090415;28;924;-78
2022/02/25 01:22:47;;;;;;;;;;;;;;;22.20;22.96;98072.91;5073835;28;1564;-78
2022/02/25 01:25:13;;;;;;;;;;;;;;;21.83;23.48;98070.19;5077169;28;1905;-77
2022/02/25 01:27:38;;;;;;;;;;;;;;;22.09;23.15;98061.81;5074753;28;938;-77
2022/02/25 01:30:04;;;;;;;;;;;;;;;22.38;22.79;98055.38;5076716;28;906;-77
2022/02/25 01:32:30;;;;;;;;;;;;;;;22.42;22.31;98056.06;5058320;28;957;-78
2022/02/25 01:34:55;;;;;;;;;;;;;;;22.06;22.99;98051.38;5075963;28;924;-77
2022/02/25 01:37:21;;;;;;;;;;;;;;;22.07;23.09;98048.13;5074792;28;1147;-77
2022/02/25 01:39:46;;;;;;;;;;;;;;;21.97;23.09;98054.06;5076379;28;1128;-78
2022/02/25 01:42:12;;;;;;;;;;;;;;;22.30;23.00;98061.25;5075492;28;1275;-78
2022/02/25 01:44:38;;;;;;;;;;;;;;;22.54;22.25;98052.50;5075484;28;1022;-77
2022/02/25 01:47:03;;;;;;;;;;;;;;;22.71;21.98;98050.34;5058974;28;1989;-77
2022/02/25 01:49:29;;;;;;;;;;;;;;;22.43;22.28;98040.63;5074787;28;953;-77
2022/02/25 01:51:58;;;;;;;;;;;;;;;22.03;23.10;98046.63;5076108;28;900;-77
2022/02/25 01:54:23;;;;;;;;;;;;;;;21.99;23.02;98046.72;5091765;28;995;-77
2022/02/25 01:56:49;;;;;;;;;;;;;;;22.08;23.25;98054.56;5098752;28;887;-78
2022/02/25 01:59:14;;;;;;;;;;;;;;;22.46;22.54;98045.41;5097460;28;966;-76
2022/02/25 02:01:40;;;;;;;;;;;;;;;22.46;22.15;98042.59;5096217;28;1609;-78
2022/02/25 02:04:05;;;;;;;;;;;;;;;22.23;22.83;98038.00;5061364;28;947;-77
2022/02/25 02:06:31;;;;;;;;;;;;;;;22.02;22.97;98036.50;5098528;28;1972;-77
2022/02/25 02:08:56;;;;;;;;;;;;;;;22.02;23.21;98037.31;5097578;28;902;-77
2022/02/25 02:11:34;;;;;;;;;;;;;;;22.44;22.55;98036.59;5098649;28;891;-78
2022/02/25 02:14:00;;;;;;;;;;;;;;;22.72;21.98;98030.03;5097187;28;920;-77
2022/02/25 02:16:26;;;;;;;;;;;;;;;22.34;22.42;98027.94;5098201;28;902;-76
2022/02/25 02:18:51;;;;;;;;;;;;;;;22.02;23.13;98023.16;5079090;28;1088;-78
2022/02/25 02:21:17;;;;;;;;;;;;;;;21.93;23.02;98030.72;5098190;28;1124;-77
2022/02/25 02:23:42;;;;;;;;;;;;;;;22.41;22.63;98029.75;5078970;28;923;-77
2022/02/25 02:26:08;;;;;;;;;;;;;;;22.55;22.37;98026.50;5098335;28;1901;-77
2022/02/25 02:28:33;;;;;;;;;;;;;;;22.19;22.68;98026.75;5096821;28;1004;-77
2022/02/25 02:30:58;;;;;;;;;;;;;;;22.03;22.76;98023.94;5098089;28;875;-77
2022/02/25 02:33:24;;;;;;;;;;;;;;;21.83;23.32;98022.03;5096794;28;1076;-78
2022/02/25 02:35:49;;;;;;;;;;;;;;;22.01;22.81;98032.09;5079901;28;1109;-77
2022/02/25 02:38:15;;;;;;;;;;;;;;;22.34;22.75;98022.25;5096852;28;856;-76
2022/02/25 02:40:41;;;;;;;;;;;;;;;22.51;22.22;98025.03;5097546;28;915;-77
2022/02/25 02:43:07;;;;;;;;;;;;;;;22.20;22.76;98027.53;5096183;28;924;-77
2022/02/25 02:45:32;;;;;;;;;;;;;;;22.06;22.91;98023.03;5098372;28;1902;-78
2022/02/25 02:47:58;;;;;;;;;;;;;;;22.05;22.78;98010.91;5077968;28;879;-77
2022/02/25 02:50:23;;;;;;;;;;;;;;;22.27;22.60;98016.78;5098131;28;947;-77
2022/02/25 02:52:49;;;;;;;;;;;;;;;22.61;22.17;98021.06;5096143;28;914;-78
2022/02/25 02:55:14;;;;;;;;;;;;;;;22.24;22.73;98012.03;5098292;28;955;-77
2022/02/25 02:57:40;;;;;;;;;;;;;;;22.02;23.13;98017.50;5096456;28;1003;-77
2022/02/25 03:00:06;;;;;;;;;;;;;;;21.99;23.15;98003.41;5079902;28;1540;-78
2022/02/25 03:02:31;;;;;;;;;;;;;;;22.26;22.93;98012.38;5094781;28;1148;-78
2022/02/25 03:04:57;;;;;;;;;;;;;;;22.47;22.42;98008.09;5097542;28;1910;-77
2022/02/25 03:07:23;;;;;;;;;;;;;;;22.33;22.64;98000.84;5078163;28;867;-77
2022/02/25 03:09:49;;;;;;;;;;;;;;;22.02;23.08;97999.66;5097262;28;928;-76
2022/02/25 03:12:14;;;;;;;;;;;;;;;22.03;23.13;98001.28;5079816;28;914;-77
2022/02/25 03:14:40;;;;;;;;;;;;;;;22.18;22.97;98001.72;5101425;28;949;-77
2022/02/25 03:17:05;;;;;;;;;;;;;;;22.46;22.47;98011.41;5098020;28;1411;-76
2022/02/25 03:19:31;;;;;;;;;;;;;;;22.30;22.65;98004.56;5100787;28;958;-77
2022/02/25 03:21:56;;;;;;;;;;;;;;;22.07;22.72;98008.44;5101615;28;960;-77
2022/02/25 03:24:22;;;;;;;;;;;;;;;22.06;23.05;98014.53;5100258;28;926;-76
2022/02/25 03:26:47;;;;;;;;;;;;;;;22.12;23.08;97998.59;5065654;28;1914;-77
2022/02/25 03:29:13;;;;;;;;;;;;;;;22.52;22.33;97992.56;5100566;28;954;-78
2022/02/25 03:31:38;;;;;;;;;;;;;;;22.55;22.39;97986.00;5101068;28;999;-77
2022/02/25 03:34:05;;;;;;;;;;;;;;;22.25;22.48;97988.09;5100469;28;943;-78
2022/02/25 03:36:30;;;;;;;;;;;;;;;22.15;22.90;97989.22;5101323;28;934;-77
2022/02/25 03:38:56;;;;;;;;;;;;;;;22.20;22.89;97994.34;5100132;28;966;-77
2022/02/25 03:41:21;;;;;;;;;;;;;;;22.39;22.67;97983.28;5101054;28;963;-77
2022/02/25 03:43:47;;;;;;;;;;;;;;;22.55;22.31;97983.19;5100317;28;964;-77
2022/02/25 03:46:12;;;;;;;;;;;;;;;22.10;22.60;97984.06;5065082;28;1910;-77
2022/02/25 03:48:38;;;;;;;;;;;;;;;21.85;23.07;97979.09;5099980;28;870;-78
2022/02/25 03:51:03;;;;;;;;;;;;;;;21.96;23.08;97973.94;5100896;28;987;-77
2022/02/25 03:53:29;;;;;;;;;;;;;;;22.38;22.45;97978.81;5081454;28;1118;-78
2022/02/25 03:55:54;;;;;;;;;;;;;;;22.65;21.96;97973.53;5101014;28;961;-77
2022/02/25 03:58:20;;;;;;;;;;;;;;;22.23;22.61;97976.44;5099686;28;894;-77
2022/02/25 04:00:46;;;;;;;;;;;;;;;22.08;22.55;97975.22;5100799;28;1091;-77
2022/02/25 04:03:11;;;;;;;;;;;;;;;21.97;22.96;97966.25;5099607;28;1307;-77
2022/02/25 04:05:37;;;;;;;;;;;;;;;22.26;22.49;97974.72;5101627;28;1910;-77
2022/02/25 04:08:02;;;;;;;;;;;;;;;22.52;22.06;97975.56;5051381;28;1023;-78
2022/02/25 04:10:28;;;;;;;;;;;;;;;22.31;22.18;97957.97;5080869;28;974;-78
2022/02/25 04:12:53;;;;;;;;;;;;;;;22.07;22.47;97956.63;5043188;28;993;-77
2022/02/25 04:15:19;;;;;;;;;;;;;;;22.02;22.82;97957.16;5080950;28;893;-78
2022/02/25 04:17:44;;;;;;;;;;;;;;;22.07;22.69;97962.28;5097334;28;1057;-78
2022/02/25 04:20:11;;;;;;;;;;;;;;;22.53;21.95;97977.16;5100871;28;1036;-76
2022/02/25 04:22:37;;;;;;;;;;;;;;;22.36;22.05;97968.75;5099374;28;1184;-77
2022/02/25 04:25:02;;;;;;;;;;;;;;;22.01;22.43;97969.75;5065062;28;1987;-77
2022/02/25 04:27:28;;;;;;;;;;;;;;;21.92;22.69;97978.94;5063749;28;1079;-77
2022/02/25 04:29:54;;;;;;;;;;;;;;;22.10;22.71;97984.06;5100529;28;894;-78
2022/02/25 04:32:19;;;;;;;;;;;;;;;22.62;21.71;97991.47;5063572;28;981;-78
2022/02/25 04:34:45;;;;;;;;;;;;;;;22.44;21.78;97996.88;5099994;28;1043;-77
2022/02/25 04:37:10;;;;;;;;;;;;;;;22.21;22.32;97990.25;5099981;28;860;-77
2022/02/25 04:39:36;;;;;;;;;;;;;;;21.87;22.59;97992.84;5099284;28;877;-77
2022/02/25 04:42:01;;;;;;;;;;;;;;;21.99;22.90;97994.91;5098956;28;1697;-78
2022/02/25 04:44:27;;;;;;;;;;;;;;;22.31;22.34;98000.47;5098635;28;1029;-78
2022/02/25 04:46:52;;;;;;;;;;;;;;;22.53;21.72;97986.44;5099485;28;1979;-77
2022/02/25 04:49:18;;;;;;;;;;;;;;;22.18;22.48;97985.50;5098745;28;963;-78
2022/02/25 04:51:43;;;;;;;;;;;;;;;21.77;22.84;97989.84;5099867;28;986;-77
2022/02/25 04:54:09;;;;;;;;;;;;;;;22.14;22.69;97996.13;5098740;28;893;-77
2022/02/25 04:56:36;;;;;;;;;;;;;;;22.53;22.22;98005.50;5099995;28;935;-77
2022/02/25 04:59:01;;;;;;;;;;;;;;;22.65;21.65;98013.25;5097461;28;1769;-77
2022/02/25 05:01:27;;;;;;;;;;;;;;;22.27;22.10;98011.13;5099233;28;1031;-77
2022/02/25 05:03:52;;;;;;;;;;;;;;;21.96;22.72;98024.13;5098399;28;935;-77
2022/02/25 05:06:18;;;;;;;;;;;;;;;22.00;22.56;98030.50;5099655;28;1969;-77
2022/02/25 05:08:44;;;;;;;;;;;;;;;22.19;22.45;98032.44;5055962;28;961;-77
2022/02/25 05:11:09;;;;;;;;;;;;;;;22.56;21.93;98044.31;5057438;28;989;-78
2022/02/25 05:13:35;;;;;;;;;;;;;;;22.61;21.74;98040.91;5039137;28;1007;-77
2022/02/25 05:21:29;;;;;;;;;;;;;;;22.10;22.64;98046.41;4997202;28;1021;-77
2022/02/25 05:23:54;;;;;;;;;;;;;;;22.40;22.19;98050.06;4995880;28;1013;-78
2022/02/25 05:26:22;;;;;;;;;;;;;;;22.47;21.82;98058.34;4997006;28;1899;-77
2022/02/25 05:28:48;;;;;;;;;;;;;;;22.32;22.28;98058.75;4995695;28;1073;-78
2022/02/25 05:31:14;;;;;;;;;;;;;;;22.08;22.41;98051.75;4996801;28;940;-77
2022/02/25 05:33:40;;;;;;;;;;;;;;;22.14;22.57;98058.47;4995865;28;1027;-77
2022/02/25 05:36:06;;;;;;;;;;;;;;;22.48;21.87;98051.44;4980540;28;1137;-77
2022/02/25 05:38:31;;;;;;;;;;;;;;;22.43;21.97;98057.66;4996568;28;1034;-78
2022/02/25 05:40:57;;;;;;;;;;;;;;;22.20;22.42;98062.34;5036259;28;999;-77
2022/02/25 05:43:22;;;;;;;;;;;;;;;22.00;22.46;98053.16;5034668;28;1120;-77
2022/02/25 05:45:47;;;;;;;;;;;;;;;21.95;22.72;98046.00;5036325;28;1918;-77
2022/02/25 05:48:13;;;;;;;;;;;;;;;22.31;22.51;98050.72;5034671;28;968;-77
2022/02/25 05:50:38;;;;;;;;;;;;;;;22.52;21.86;98055.75;5073532;28;951;-77
2022/02/25 05:53:04;;;;;;;;;;;;;;;22.19;22.09;98049.44;5076608;28;830;-78
2022/02/25 05:55:30;;;;;;;;;;;;;;;21.99;22.88;98037.41;5079142;28;1001;-78
2022/02/25 05:57:55;;;;;;;;;;;;;;;21.94;22.71;98043.63;5077819;28;1389;-77
2022/02/25 06:00:21;;;;;;;;;;;;;;;22.17;22.64;98051.09;5099195;28;1341;-78
2022/02/25 06:02:47;;;;;;;;;;;;;;;22.36;22.43;98061.50;5096628;28;1051;-77
2022/02/25 06:05:12;;;;;;;;;;;;;;;22.70;21.76;98054.44;5099150;28;1883;-78
2022/02/25 06:07:37;;;;;;;;;;;;;;;22.20;22.58;98062.34;5097240;28;969;-77
2022/02/25 06:10:03;;;;;;;;;;;;;;;22.05;22.61;98061.13;5098714;28;962;-78
2022/02/25 06:12:30;;;;;;;;;;;;;;;22.01;22.93;98060.41;5097117;28;860;-77
2022/02/25 06:14:56;;;;;;;;;;;;;;;22.25;22.63;98061.81;5098337;28;974;-78
2022/02/25 06:17:22;;;;;;;;;;;;;;;22.44;22.30;98062.09;5061594;28;1028;-77
2022/02/25 06:19:47;;;;;;;;;;;;;;;22.43;22.31;98057.66;5098076;28;916;-77
2022/02/25 06:22:13;;;;;;;;;;;;;;;22.25;22.53;98052.50;5097349;28;771;-78
2022/02/25 06:24:38;;;;;;;;;;;;;;;21.91;22.78;98056.63;5097685;28;858;-78
2022/02/25 06:27:03;;;;;;;;;;;;;;;22.02;22.89;98062.00;5097430;28;1982;-77
2022/02/25 06:29:29;;;;;;;;;;;;;;;22.44;22.22;98054.38;5097416;28;959;-77
2022/02/25 06:31:54;;;;;;;;;;;;;;;22.62;21.96;98053.84;5097734;28;861;-76
2022/02/25 06:34:20;;;;;;;;;;;;;;;22.22;22.44;98054.19;5053996;28;943;-77
2022/02/25 06:36:45;;;;;;;;;;;;;;;22.07;22.72;98058.63;5054782;28;1335;-77
2022/02/25 06:39:11;;;;;;;;;;;;;;;21.92;23.07;98048.94;5054232;28;1043;-78
2022/02/25 06:41:36;;;;;;;;;;;;;;;22.20;22.67;98062.34;5038306;28;995;-77
2022/02/25 06:44:02;;;;;;;;;;;;;;;22.53;22.28;98053.72;5054260;28;1104;-77
2022/02/25 06:46:27;;;;;;;;;;;;;;;22.31;22.37;98051.50;5054235;28;1985;-77
2022/02/25 06:48:53;;;;;;;;;;;;;;;22.08;22.79;98061.03;5054254;28;924;-79
2022/02/25 06:51:18;;;;;;;;;;;;;;;21.98;22.95;98061.31;5055260;28;1008;-77
2022/02/25 06:53:44;;;;;;;;;;;;;;;22.27;22.36;98062.13;5054126;28;1064;-77
2022/02/25 06:56:10;;;;;;;;;;;;;;;22.47;22.29;98061.97;5054866;28;897;-78
2022/02/25 06:58:35;;;;;;;;;;;;;;;22.36;22.08;98048.13;5054295;28;1079;-77
2022/02/25 07:01:01;;;;;;;;;;;;;;;22.11;22.80;98042.34;5054727;28;982;-77
2022/02/25 07:03:28;;;;;;;;;;;;;;;22.11;22.80;98036.69;5037737;28;1067;-77
2022/02/25 07:05:53;;;;;;;;;;;;;;;22.03;22.96;98030.41;5086374;28;1905;-77
2022/02/25 07:08:21;;;;;;;;;;;;;;;22.30;22.53;98030.06;5078616;28;1105;-77
2022/02/25 07:10:46;;;;;;;;;;;;;;;22.53;21.96;98033.84;5062432;28;949;-77
2022/02/25 07:13:12;;;;;;;;;;;;;;;22.09;22.82;98039.16;5096470;28;936;-78
2022/02/25 07:15:37;;;;;;;;;;;;;;;21.99;22.63;98040.25;5097861;28;961;-76
2022/02/25 07:18:03;;;;;;;;;;;;;;;22.10;22.59;98052.06;5096296;28;920;-77
2022/02/25 07:20:28;;;;;;;;;;;;;;;22.29;22.42;98048.31;5098188;28;842;-77
2022/02/25 07:22:54;;;;;;;;;;;;;;;22.58;21.90;98044.66;5096092;28;1083;-77
2022/02/25 07:25:19;;;;;;;;;;;;;;;22.19;22.58;98055.09;5097660;28;1878;-77
2022/02/25 07:27:45;;;;;;;;;;;;;;;22.01;22.73;98038.53;5095706;28;978;-78
2022/02/25 07:30:10;;;;;;;;;;;;;;;21.91;23.04;98038.84;5098038;28;948;-77
2022/02/25 07:32:36;;;;;;;;;;;;;;;22.24;22.73;98033.91;5095864;28;1298;-78
2022/02/25 07:35:03;;;;;;;;;;;;;;;22.36;22.20;98042.44;5097474;28;875;-77
2022/02/25 07:37:28;;;;;;;;;;;;;;;22.10;22.74;98035.06;5095755;28;1031;-78
2022/02/25 07:39:54;;;;;;;;;;;;;;;21.98;22.59;98041.50;5096740;28;848;-76
2022/02/25 07:42:20;;;;;;;;;;;;;;;22.04;22.59;98036.88;5096717;28;1133;-76
2022/02/25 07:44:45;;;;;;;;;;;;;;;22.43;22.30;98040.63;5044389;28;949;-77
2022/02/25 07:47:11;;;;;;;;;;;;;;;22.52;21.95;98049.28;5096478;28;1906;-79
2022/02/25 07:49:36;;;;;;;;;;;;;;;22.18;22.32;98044.22;5096448;28;863;-77
2022/02/25 07:52:03;;;;;;;;;;;;;;;21.79;22.92;98038.34;5096999;28;918;-77
2022/02/25 07:54:31;;;;;;;;;;;;;;;21.89;22.98;98041.34;5044418;28;1117;-77
2022/02/25 07:56:56;;;;;;;;;;;;;;;22.19;22.61;98049.44;5096723;28;956;-77
2022/02/25 07:59:22;;;;;;;;;;;;;;;22.47;22.10;98044.16;5098722;28;907;-77
2022/02/25 08:01:47;;;;;;;;;;;;;;;22.65;21.92;98044.44;5100726;28;1195;-77
2022/02/25 08:04:13;;;;;;;;;;;;;;;22.75;21.88;98045.38;5099707;28;954;-77
2022/02/25 08:06:42;;;;;;;;;;;;;;;22.21;22.27;98046.94;5057594;28;1905;-77
2022/02/25 08:09:09;;;;;;;;;;;;;;;22.08;22.76;98049.69;5056591;28;969;-77
2022/02/25 08:11:35;;;;;;;;;;;;;;;21.90;22.85;98042.91;5058272;28;937;-77
2022/02/25 08:14:00;;;;;;;;;;;;;;;22.23;22.54;98038.78;5056506;28;1046;-78
2022/02/25 08:16:26;;;;;;;;;;;;;;;22.49;22.26;98038.88;5057566;28;942;-77
2022/02/25 08:18:51;;;;;;;;;;;;;;;22.27;22.48;98038.66;5020023;28;978;-78
2022/02/25 08:21:17;;;;;;;;;;;;;;;21.99;22.69;98046.72;5037662;28;956;-78
2022/02/25 08:23:43;;;;;;;;;;;;;;;21.99;22.75;98045.91;4996967;28;1116;-77
2022/02/25 08:26:09;;;;;;;;;;;;;;;21.87;22.92;98055.94;4998092;28;1891;-77
2022/02/25 08:28:34;;;;;;;;;;;;;;;22.14;22.57;98063.34;4997500;28;939;-78
2022/02/25 08:30:59;;;;;;;;;;;;;;;22.42;22.12;98061.72;4997824;28;1026;-77
2022/02/25 08:33:25;;;;;;;;;;;;;;;22.24;22.63;98057.38;4996664;28;1034;-77
2022/02/25 08:35:50;;;;;;;;;;;;;;;21.98;22.92;98055.66;4997767;28;964;-78
2022/02/25 08:38:18;;;;;;;;;;;;;;;21.92;23.05;98054.63;5026541;28;1015;-77
2022/02/25 08:40:44;;;;;;;;;;;;;;;22.06;22.92;98057.03;5005112;28;1071;-78
2022/02/25 08:43:09;;;;;;;;;;;;;;;22.38;22.18;98056.16;5035916;28;1071;-77
2022/02/25 08:45:35;;;;;;;;;;;;;;;22.28;22.52;98068.63;5037436;28;1989;-77
2022/02/25 08:48:00;;;;;;;;;;;;;;;21.97;22.78;98063.38;5002709;28;1018;-77
2022/02/25 08:50:26;;;;;;;;;;;;;;;21.92;22.82;98074.44;5052674;28;1096;-78
2022/02/25 08:52:52;;;;;;;;;;;;;;;22.00;23.04;98070.97;5055840;28;936;-77
2022/02/25 08:55:18;;;;;;;;;;;;;;;22.34;22.45;98078.97;5089387;28;974;-77
2022/02/25 08:57:43;;;;;;;;;;;;;;;22.60;21.75;98073.38;5098280;28;972;-77
2022/02/25 09:00:13;;;;;;;;;;;;;;;22.13;22.64;98078.78;5082429;28;884;-76
2022/02/25 09:02:39;;;;;;;;;;;;;;;22.02;22.84;98074.16;5035562;28;1032;-77
2022/02/25 09:05:04;;;;;;;;;;;;;;;21.88;23.19;98073.75;5016857;28;1910;-77
2022/02/25 09:07:30;;;;;;;;;;;;;;;22.24;22.53;98073.59;4996510;28;962;-77
2022/02/25 09:09:55;;;;;;;;;;;;;;;22.47;22.46;98064.03;4996642;28;980;-77
2022/02/25 09:12:21;;;;;;;;;;;;;;;22.32;22.61;98055.13;4996795;28;952;-78
2022/02/25 09:14:46;;;;;;;;;;;;;;;22.05;22.68;98049.78;4997372;28;1152;-77
2022/02/25 09:17:12;;;;;;;;;;;;;;;21.94;23.02;98060.63;4996609;28;989;-77
2022/02/25 09:19:38;;;;;;;;;;;;;;;21.98;22.83;98050.00;4996925;28;953;-76
2022/02/25 09:22:04;;;;;;;;;;;;;;;22.22;22.80;98048.50;4996602;28;958;-76
2022/02/25 09:24:30;;;;;;;;;;;;;;;22.50;22.12;98051.78;4997056;28;965;-77
2022/02/25 09:26:56;;;;;;;;;;;;;;;22.27;22.68;98039.47;4996994;28;1971;-78
2022/02/25 09:29:21;;;;;;;;;;;;;;;21.90;23.08;98034.41;4995884;28;1207;-78
2022/02/25 09:31:46;;;;;;;;;;;;;;;21.89;23.13;98025.13;4997173;28;1013;-77
2022/02/25 09:34:12;;;;;;;;;;;;;;;22.30;22.47;98021.56;5010072;28;936;-78
2022/02/25 09:36:38;;;;;;;;;;;;;;;22.48;22.29;98023.06;5016541;28;961;-77
2022/02/25 09:39:03;;;;;;;;;;;;;;;22.28;22.25;98018.41;5028239;28;964;-77
2022/02/25 09:41:30;;;;;;;;;;;;;;;22.12;22.79;98009.94;5059570;28;955;-77
2022/02/25 09:43:55;;;;;;;;;;;;;;;22.06;22.78;98011.69;5097970;28;913;-77
2022/02/25 09:46:20;;;;;;;;;;;;;;;22.22;22.81;98013.72;5099308;28;1965;-78
2022/02/25 09:48:46;;;;;;;;;;;;;;;22.49;22.26;98004.84;5097717;28;996;-77
2022/02/25 09:51:11;;;;;;;;;;;;;;;22.45;22.25;98004.16;5098713;28;905;-77
2022/02/25 09:53:38;;;;;;;;;;;;;;;22.14;22.51;97998.97;5097674;28;994;-77
2022/02/25 09:56:04;;;;;;;;;;;;;;;21.91;23.07;97993.50;5099124;28;944;-78
2022/02/25 09:58:30;;;;;;;;;;;;;;;21.89;23.06;97979.81;5045176;28;1058;-77
2022/02/25 10:00:55;;;;;;;;;;;;;;;22.29;22.53;97988.00;5098024;28;925;-77
2022/02/25 10:03:25;;;;;;;;;;;;;;;22.50;22.43;97978.06;5097060;28;1011;-77
2022/02/25 10:05:50;;;;;;;;;;;;;;;22.13;22.70;97977.53;5098233;28;1898;-77
2022/02/25 10:08:16;;;;;;;;;;;;;;;21.98;22.61;97970.66;5097166;28;973;-78
2022/02/25 10:10:41;;;;;;;;;;;;;;;21.96;22.97;97965.44;5098854;28;1087;-77
2022/02/25 10:13:07;;;;;;;;;;;;;;;22.27;22.46;97965.75;5096908;28;943;-79
2022/02/25 10:15:33;;;;;;;;;;;;;;;22.51;22.13;97976.81;5097860;28;2003;-78
2022/02/25 10:18:00;;;;;;;;;;;;;;;22.43;22.24;97973.38;5078763;28;992;-78
2022/02/25 10:20:25;;;;;;;;;;;;;;;22.03;22.96;97961.63;5081074;28;1008;-77
2022/02/25 10:22:51;;;;;;;;;;;;;;;21.99;22.63;97969.41;5096687;28;908;-78
2022/02/25 10:25:20;;;;;;;;;;;;;;;22.21;22.49;97967.56;5098662;28;1882;-77
2022/02/25 10:27:45;;;;;;;;;;;;;;;22.42;22.22;97979.53;5096123;28;940;-77
2022/02/25 10:30:11;;;;;;;;;;;;;;;22.48;21.95;97960.69;5098551;28;941;-78
2022/02/25 10:32:40;;;;;;;;;;;;;;;22.21;22.63;97956.22;5096361;28;1164;-77
2022/02/25 10:35:24;;;;;;;;;;;;;;;22.08;22.52;97952.56;5097983;28;906;-76
2022/02/25 10:38:08;;;;;;;;;;;;;;;22.06;22.83;97955.03;5096535;28;913;-77
2022/02/25 10:40:35;;;;;;;;;;;;;;;22.33;22.21;97946.19;5098126;28;825;-77
2022/02/25 10:43:00;;;;;;;;;;;;;;;22.45;22.09;97941.78;5096162;28;958;-77
2022/02/25 10:45:27;;;;;;;;;;;;;;;22.20;22.52;97948.97;5097667;28;1898;-77
2022/02/25 10:47:52;;;;;;;;;;;;;;;22.14;22.44;97944.34;5096151;28;848;-77
2022/02/25 10:50:20;;;;;;;;;;;;;;;22.07;22.43;97939.63;5080002;28;1181;-78
2022/02/25 10:52:48;;;;;;;;;;;;;;;21.92;22.83;97955.47;5077780;28;923;-77
2022/02/25 10:55:23;;;;;;;;;;;;;;;22.05;22.73;97933.63;5095523;28;1043;-72
2022/02/25 10:57:50;;;;;;;;;;;;;;;22.70;21.70;97930.44;5094654;28;966;-71
2022/02/25 11:00:16;;;;;;;;;;;;;;;23.26;21.09;97924.16;5094786;28;997;-73
2022/02/25 11:02:43;;;;;;;;;;;;;;;23.22;21.15;97919.84;5095594;28;1214;-73
2022/02/25 11:05:12;;;;;;;;;;;;;;;23.24;21.30;97917.31;5095320;28;1994;-73
2022/02/25 11:07:41;;;;;;;;;;;;;;;23.32;21.14;97910.94;5095096;28;941;-74
2022/02/25 11:10:07;;;;;;;;;;;;;;;23.25;21.33;97919.69;5095225;28;1001;-74
2022/02/25 11:12:34;;;;;;;;;;;;;;;23.40;21.21;97915.09;5077114;28;1033;-74
2022/02/25 11:15:00;;;;;;;;;;;;;;;23.52;21.13;97921.19;5095288;28;950;-76
2022/02/25 11:17:25;;;;;;;;;;;;;;;23.43;21.29;97918.28;5052285;28;1274;-72
2022/02/25 11:19:53;;;;;;;;;;;;;;;23.63;21.30;97918.81;5052501;28;946;-70
2022/02/25 11:22:19;;;;;;;;;;;;;;;23.49;21.67;97916.44;5035423;28;1145;-73
2022/02/25 11:24:45;;;;;;;;;;;;;;;23.39;21.76;97910.69;5035823;28;1013;-73
2022/02/25 11:27:10;;;;;;;;;;;;;;;23.51;21.70;97913.94;5052107;28;1989;-74
2022/02/25 11:29:40;;;;;;;;;;;;;;;23.33;21.91;97904.00;5052213;28;942;-76
2022/02/25 11:32:06;;;;;;;;;;;;;;;23.29;22.05;97900.50;5035721;28;1017;-74
2022/02/25 11:34:31;;;;;;;;;;;;;;;23.63;21.64;97904.63;5038355;28;1148;-73
2022/02/25 11:36:57;;;;;;;;;;;;;;;23.48;21.80;97903.50;5056220;28;1019;-73
2022/02/25 11:39:25;;;;;;;;;;;;;;;23.32;22.10;97895.97;5056024;28;1052;-73
2022/02/25 11:41:52;;;;;;;;;;;;;;;23.21;22.66;97896.34;5056123;28;1060;-73
2022/02/25 11:44:17;;;;;;;;;;;;;;;23.57;22.11;97909.25;5055878;28;965;-70
2022/02/25 11:46:44;;;;;;;;;;;;;;;23.71;21.84;97893.78;5039150;28;1911;-71
2022/02/25 11:49:13;;;;;;;;;;;;;;;23.77;21.85;97892.72;5090387;28;951;-73
2022/02/25 11:51:41;;;;;;;;;;;;;;;24.10;21.48;97900.84;5098677;28;1177;-71
2022/02/25 11:54:28;;;;;;;;;;;;;;;23.86;22.45;97894.81;5098373;28;1053;-73
2022/02/25 11:56:57;;;;;;;;;;;;;;;23.57;22.42;97892.22;5098533;28;1004;-75
2022/02/25 11:59:22;;;;;;;;;;;;;;;23.77;22.20;97889.88;5098413;28;971;-73
2022/02/25 12:02:10;;;;;;;;;;;;;;;23.97;22.06;97889.53;5098339;28;1047;-75
2022/02/25 12:04:38;;;;;;;;;;;;;;;24.04;21.82;97882.81;5035140;28;1185;-73
2022/02/25 12:07:13;;;;;;;;;;;;;;;24.21;21.54;97887.00;4995627;28;1914;-71
2022/02/25 12:09:41;;;;;;;;;;;;;;;23.88;21.68;97893.13;4996161;28;1043;-69
2022/02/25 12:12:24;;;;;;;;;;;;;;;23.95;21.93;97896.94;4996366;28;1132;-70
2022/02/25 12:15:02;;;;;;;;;;;;;;;23.56;22.19;97897.09;4996044;28;933;-70
2022/02/25 12:17:51;;;;;;;;;;;;;;;23.34;22.59;97882.88;4995918;28;1148;-69
2022/02/25 12:20:24;;;;;;;;;;;;;;;23.55;22.24;97887.00;4937831;29;1047;-70
2022/02/25 12:22:58;;;;;;;;;;;;;;;23.63;22.04;97882.69;4937957;29;993;-70
2022/02/25 12:25:47;;;;;;;;;;;;;;;23.60;22.04;97877.09;4937582;29;1907;-73
2022/02/25 12:31:13;;;;;;;;;;;;;;;23.56;22.13;97871.53;4937799;29;1084;-72
2022/02/25 12:33:41;;;;;;;;;;;;;;;23.61;22.29;97862.41;4880559;29;1198;-70
2022/02/25 12:36:12;;;;;;;;;;;;;;;23.40;22.54;97875.34;4921090;29;1016;-70
2022/02/25 12:38:39;;;;;;;;;;;;;;;23.33;22.64;97864.25;4947157;29;1707;-69
2022/02/25 12:41:16;;;;;;;;;;;;;;;23.29;22.57;97857.91;4937350;29;1534;-70
2022/02/25 12:43:45;;;;;;;;;;;;;;;23.23;22.97;97854.09;4937616;29;1117;-70
2022/02/25 12:46:10;;;;;;;;;;;;;;;23.32;22.50;97854.16;4936158;29;1974;-72
2022/02/25 12:48:36;;;;;;;;;;;;;;;23.36;22.76;97860.50;4937642;29;994;-70
2022/02/25 12:51:02;;;;;;;;;;;;;;;23.33;22.56;97861.44;4936980;29;1500;-68
2022/02/25 12:53:27;;;;;;;;;;;;;;;22.94;23.29;97862.00;4937416;29;1605;-76
2022/02/25 12:55:53;;;;;;;;;;;;;;;22.73;23.26;97867.09;4938581;29;1030;-77
2022/02/25 12:58:19;;;;;;;;;;;;;;;22.56;23.68;97862.81;4955625;29;1098;-76
2022/02/25 13:00:54;;;;;;;;;;;;;;;22.53;23.29;97866.56;4957617;29;1041;-75
2022/02/25 13:03:20;;;;;;;;;;;;;;;22.35;23.84;97862.25;4956874;29;1322;-76
2022/02/25 13:05:54;;;;;;;;;;;;;;;22.17;23.98;97859.19;5002566;28;1907;-76